createdAt,value
2018-10-12T00:00:05.614Z,65.60
2018-10-12T00:02:33.996Z,65.50
2018-10-12T00:05:02.340Z,65.90
2018-10-12T00:07:30.665Z,66.20
2018-10-12T00:09:58.996Z,66.50
2018-10-12T00:12:27.324Z,66.50
2018-10-12T00:14:55.650Z,66.50
2018-10-12T00:17:23.986Z,66.60
2018-10-12T00:19:52.351Z,67.10
2018-10-12T00:22:20.699Z,68.00
2018-10-12T00:24:49.000Z,68.00
2018-10-12T00:27:17.318Z,67.70
2018-10-12T00:29:45.681Z,67.30
2018-10-12T00:32:14.030Z,67.00
2018-10-12T00:34:42.384Z,66.50
2018-10-12T00:37:10.696Z,66.50
2018-10-12T00:39:39.050Z,66.80
2018-10-12T00:42:07.380Z,66.70
2018-10-12T00:44:35.701Z,67.00
2018-10-12T00:47:04.062Z,67.00
2018-10-12T00:49:32.413Z,67.40
2018-10-12T00:52:00.732Z,67.30
2018-10-12T00:54:29.091Z,68.00
2018-10-12T00:56:57.435Z,67.70
2018-10-12T00:59:25.792Z,67.60
2018-10-12T01:01:54.086Z,67.30
2018-10-12T01:04:22.473Z,67.40
2018-10-12T01:06:50.802Z,67.50
2018-10-12T01:09:19.121Z,67.30
2018-10-12T01:11:47.494Z,67.20
2018-10-12T01:14:15.878Z,67.30
2018-10-12T01:16:44.224Z,67.20
2018-10-12T01:19:12.602Z,67.20
2018-10-12T01:21:40.974Z,67.20
2018-10-12T01:24:09.340Z,67.30
2018-10-12T01:26:37.725Z,67.20
2018-10-12T01:29:06.056Z,68.00
2018-10-12T01:31:34.410Z,68.90
2018-10-12T01:34:02.722Z,68.80
2018-10-12T01:36:31.032Z,68.30
2018-10-12T01:38:59.363Z,68.00
2018-10-12T01:41:27.716Z,67.70
2018-10-12T01:43:56.058Z,67.70
2018-10-12T01:46:24.419Z,67.80
2018-10-12T01:48:52.743Z,68.20
2018-10-12T01:51:21.213Z,68.30
2018-10-12T01:53:49.612Z,68.10
2018-10-12T01:56:18.036Z,67.90
2018-10-12T01:58:46.361Z,68.00
2018-10-12T02:01:14.690Z,67.70
2018-10-12T02:03:43.039Z,67.90
2018-10-12T02:06:11.356Z,67.70
2018-10-12T02:08:39.710Z,68.00
2018-10-12T02:11:08.000Z,68.00
2018-10-12T02:13:36.321Z,68.10
2018-10-12T02:16:04.711Z,67.80
2018-10-12T02:18:33.063Z,67.80
2018-10-12T02:21:01.960Z,68.10
2018-10-12T02:23:30.298Z,68.40
2018-10-12T02:25:58.661Z,69.10
2018-10-12T02:28:27.180Z,68.40
2018-10-12T02:30:55.634Z,68.50
2018-10-12T02:33:23.968Z,68.60
2018-10-12T02:35:52.342Z,68.80
2018-10-12T02:38:20.692Z,68.60
2018-10-12T02:40:49.047Z,68.70
2018-10-12T02:43:17.401Z,68.60
2018-10-12T02:45:45.724Z,68.30
2018-10-12T02:48:14.074Z,68.40
2018-10-12T02:50:42.485Z,68.50
2018-10-12T02:53:10.848Z,68.50
2018-10-12T02:55:39.172Z,68.70
2018-10-12T02:58:07.485Z,68.60
2018-10-12T03:00:35.832Z,68.60
2018-10-12T03:03:04.196Z,68.60
2018-10-12T03:05:32.507Z,68.40
2018-10-12T03:08:01.052Z,68.50
2018-10-12T03:10:29.361Z,68.40
2018-10-12T03:12:57.700Z,68.60
2018-10-12T03:15:26.036Z,69.00
2018-10-12T03:17:54.350Z,69.40
2018-10-12T03:20:22.682Z,69.30
2018-10-12T03:22:51.050Z,69.20
2018-10-12T03:25:19.393Z,69.20
2018-10-12T03:27:59.246Z,69.10
2018-10-12T03:30:27.646Z,69.10
2018-10-12T03:32:56.009Z,69.00
2018-10-12T03:35:24.409Z,68.90
2018-10-12T03:37:52.950Z,68.80
2018-10-12T03:40:21.280Z,68.80
2018-10-12T03:42:49.613Z,68.50
2018-10-12T03:45:17.965Z,68.60
2018-10-12T03:47:46.302Z,68.80
2018-10-12T03:50:14.642Z,69.10
2018-10-12T03:52:43.127Z,69.10
2018-10-12T03:55:11.456Z,69.10
2018-10-12T03:57:39.793Z,69.10
2018-10-12T04:00:08.181Z,69.20
2018-10-12T04:02:36.583Z,69.20
2018-10-12T04:05:05.207Z,69.10
2018-10-12T04:07:33.524Z,69.00
2018-10-12T04:10:01.870Z,68.90
2018-10-12T04:12:30.242Z,68.80
2018-10-12T04:14:58.577Z,68.80
2018-10-12T04:17:26.933Z,68.70
2018-10-12T04:19:55.269Z,68.70
2018-10-12T04:22:25.077Z,68.50
2018-10-12T04:24:53.435Z,68.50
2018-10-12T04:27:22.040Z,70.00
2018-10-12T04:29:50.425Z,70.90
2018-10-12T04:32:18.781Z,70.40
2018-10-12T04:34:47.685Z,70.30
2018-10-12T04:37:16.347Z,70.10
2018-10-12T04:41:57.337Z,69.80
2018-10-12T04:44:25.740Z,69.20
2018-10-12T04:46:54.115Z,67.80
2018-10-12T04:49:22.510Z,67.50
2018-10-12T04:51:53.951Z,67.70
2018-10-12T04:54:22.457Z,68.10
2018-10-12T04:56:51.397Z,68.30
2018-10-12T04:59:21.484Z,68.50
2018-10-12T05:01:49.893Z,68.50
2018-10-12T05:04:18.385Z,68.40
2018-10-12T05:06:46.787Z,68.80
2018-10-12T05:09:15.543Z,69.20
2018-10-12T05:11:44.174Z,69.20
2018-10-12T05:14:12.589Z,69.20
2018-10-12T05:16:40.982Z,69.00
2018-10-12T05:19:09.458Z,68.90
2018-10-12T05:21:37.805Z,68.70
2018-10-12T05:24:06.179Z,68.60
2018-10-12T05:26:34.544Z,68.40
2018-10-12T05:29:03.041Z,68.10
2018-10-12T05:31:31.382Z,68.10
2018-10-12T05:33:59.730Z,68.00
2018-10-12T05:36:28.053Z,68.00
2018-10-12T05:38:56.362Z,68.00
2018-10-12T05:41:24.687Z,68.20
2018-10-12T05:43:53.178Z,68.50
2018-10-12T05:46:21.483Z,68.80
2018-10-12T05:49:01.230Z,68.80
2018-10-12T05:51:29.584Z,68.80
2018-10-12T05:53:58.312Z,68.70
2018-10-12T05:56:30.385Z,68.60
2018-10-12T05:58:59.166Z,68.60
2018-10-12T06:01:27.617Z,68.60
2018-10-12T06:03:55.949Z,68.80
2018-10-12T06:06:24.280Z,69.10
2018-10-12T06:08:52.687Z,69.20
2018-10-12T06:11:21.095Z,69.20
2018-10-12T06:13:49.392Z,69.30
2018-10-12T06:16:17.700Z,70.00
2018-10-12T06:18:46.061Z,69.40
2018-10-12T06:21:14.378Z,69.40
2018-10-12T06:23:42.714Z,69.40
2018-10-12T06:26:11.292Z,69.40
2018-10-12T06:28:39.624Z,69.40
2018-10-12T06:31:08.373Z,69.40
2018-10-12T06:33:36.731Z,69.50
2018-10-12T06:36:05.055Z,69.40
2018-10-12T06:38:33.430Z,69.40
2018-10-12T06:41:01.850Z,69.50
2018-10-12T06:43:30.134Z,70.60
2018-10-12T06:45:58.503Z,71.40
2018-10-12T06:48:26.835Z,70.90
2018-10-12T06:50:55.182Z,70.60
2018-10-12T06:53:23.504Z,70.20
2018-10-12T06:55:51.802Z,69.90
2018-10-12T06:58:20.152Z,69.70
2018-10-12T07:00:48.525Z,69.60
2018-10-12T07:03:16.931Z,69.70
2018-10-12T07:05:45.403Z,69.70
2018-10-12T07:08:13.716Z,69.60
2018-10-12T07:10:42.089Z,69.70
2018-10-12T07:13:10.456Z,69.60
2018-10-12T07:15:38.856Z,70.20
2018-10-12T07:18:07.184Z,70.00
2018-10-12T07:20:35.504Z,70.10
2018-10-12T07:23:03.861Z,70.20
2018-10-12T07:25:32.230Z,70.60
2018-10-12T07:28:00.554Z,70.70
2018-10-12T07:30:35.705Z,70.70
2018-10-12T07:33:04.088Z,71.00
2018-10-12T07:35:32.429Z,70.90
2018-10-12T07:38:00.766Z,70.80
2018-10-12T07:40:29.135Z,70.60
2018-10-12T07:42:57.458Z,70.40
2018-10-12T07:45:25.826Z,70.00
2018-10-12T07:47:54.174Z,69.80
2018-10-12T07:50:22.637Z,69.60
2018-10-12T07:52:50.999Z,68.90
2018-10-12T07:55:19.317Z,68.50
2018-10-12T07:57:47.749Z,67.60
2018-10-12T08:00:16.178Z,68.70
2018-10-12T08:02:44.435Z,68.40
2018-10-12T08:05:12.776Z,68.70
2018-10-12T08:07:41.111Z,68.30
2018-10-12T08:10:09.468Z,69.00
2018-10-12T08:12:37.805Z,69.30
2018-10-12T08:15:06.170Z,68.60
2018-10-12T08:17:34.532Z,68.40
2018-10-12T08:20:04.003Z,68.30
2018-10-12T08:22:32.396Z,68.40
2018-10-12T08:25:00.757Z,68.00
2018-10-12T08:27:29.115Z,68.40
2018-10-12T08:29:57.702Z,65.20
2018-10-12T08:32:26.096Z,63.00
2018-10-12T08:34:54.440Z,60.70
2018-10-12T08:37:22.856Z,59.90
2018-10-12T08:39:51.190Z,59.50
2018-10-12T08:42:19.520Z,58.20
2018-10-12T08:44:47.864Z,58.90
2018-10-12T08:47:16.236Z,58.10
2018-10-12T08:49:44.579Z,58.20
2018-10-12T08:52:12.906Z,57.00
2018-10-12T08:54:41.369Z,55.70
2018-10-12T08:57:09.712Z,56.00
2018-10-12T08:59:38.082Z,55.50
2018-10-12T09:02:06.997Z,54.50
2018-10-12T09:04:35.295Z,52.80
2018-10-12T09:07:03.632Z,51.10
2018-10-12T09:09:31.961Z,50.80
2018-10-12T09:12:00.322Z,50.50
2018-10-12T09:14:28.646Z,49.50
2018-10-12T09:16:57.003Z,49.70
2018-10-12T09:19:25.365Z,48.10
2018-10-12T09:21:53.736Z,48.10
2018-10-12T09:24:22.037Z,46.60
2018-10-12T09:26:50.401Z,47.50
2018-10-12T09:29:18.738Z,47.30
2018-10-12T09:31:47.082Z,47.20
2018-10-12T09:34:15.459Z,46.60
2018-10-12T09:36:44.060Z,46.40
2018-10-12T09:39:12.294Z,45.30
2018-10-12T09:41:40.636Z,45.00
2018-10-12T09:44:09.198Z,45.10
2018-10-12T09:46:37.540Z,44.80
2018-10-12T09:49:05.852Z,44.50
2018-10-12T09:51:34.209Z,44.50
2018-10-12T09:54:02.538Z,44.10
2018-10-12T09:56:30.894Z,44.00
2018-10-12T09:58:59.234Z,43.70
2018-10-12T10:03:34.468Z,43.70
2018-10-12T10:06:02.822Z,42.90
2018-10-12T10:08:31.373Z,42.50
2018-10-12T10:10:59.581Z,42.60
2018-10-12T10:13:27.919Z,42.40
2018-10-12T10:15:56.294Z,42.80
2018-10-12T10:18:24.672Z,41.70
2018-10-12T10:20:53.060Z,42.10
2018-10-12T10:23:21.412Z,41.50
2018-10-12T10:25:49.885Z,41.10
2018-10-12T10:28:18.341Z,41.30
2018-10-12T10:30:46.689Z,41.00
2018-10-12T10:33:15.034Z,39.50
2018-10-12T10:35:43.403Z,39.10
2018-10-12T10:38:11.773Z,39.10
2018-10-12T10:40:40.156Z,39.60
2018-10-12T10:43:08.521Z,38.30
2018-10-12T10:45:36.893Z,38.40
2018-10-12T10:48:05.258Z,37.50
2018-10-12T10:50:33.612Z,37.90
2018-10-12T10:53:02.000Z,37.10
2018-10-12T10:55:30.369Z,37.00
2018-10-12T10:57:58.753Z,36.60
2018-10-12T11:00:27.137Z,36.20
2018-10-12T11:02:55.513Z,37.10
2018-10-12T11:05:23.947Z,36.70
2018-10-12T11:07:52.233Z,35.60
2018-10-12T11:10:20.596Z,35.70
2018-10-12T11:12:49.055Z,36.00
2018-10-12T11:15:17.275Z,35.20
2018-10-12T11:17:45.620Z,35.20
2018-10-12T11:20:13.925Z,34.80
2018-10-12T11:22:42.273Z,35.00
2018-10-12T11:25:10.629Z,35.60
2018-10-12T11:27:38.977Z,34.30
2018-10-12T11:30:07.395Z,34.30
2018-10-12T11:32:35.768Z,33.60
2018-10-12T11:35:04.131Z,33.80
2018-10-12T11:37:32.491Z,33.40
2018-10-12T11:40:00.832Z,33.20
2018-10-12T11:42:40.329Z,33.10
2018-10-12T11:45:08.755Z,32.70
2018-10-12T11:47:37.061Z,33.20
2018-10-12T11:50:05.699Z,33.00
2018-10-12T11:52:34.054Z,32.70
2018-10-12T11:55:02.427Z,32.50
2018-10-12T11:57:30.803Z,31.90
2018-10-12T11:59:59.150Z,31.20
2018-10-12T12:02:27.461Z,31.70
2018-10-12T12:04:55.855Z,32.00
2018-10-12T12:07:24.291Z,31.30
2018-10-12T12:09:52.751Z,31.40
2018-10-12T12:12:21.105Z,30.70
2018-10-12T12:14:49.449Z,30.80
2018-10-12T12:17:17.789Z,30.40
2018-10-12T12:19:46.133Z,30.20
2018-10-12T12:22:14.497Z,30.90
2018-10-12T12:24:42.934Z,30.60
2018-10-12T12:27:11.287Z,30.90
2018-10-12T12:29:39.674Z,30.10
2018-10-12T12:32:08.056Z,29.70
2018-10-12T12:34:36.598Z,30.10
2018-10-12T12:37:04.831Z,29.80
2018-10-12T12:39:33.198Z,29.70
2018-10-12T12:42:01.552Z,30.00
2018-10-12T12:44:29.896Z,29.40
2018-10-12T12:46:58.243Z,29.90
2018-10-12T12:49:26.801Z,29.40
2018-10-12T12:51:54.929Z,29.60
2018-10-12T12:54:23.485Z,30.30
2018-10-12T12:56:51.801Z,30.00
2018-10-12T12:59:20.127Z,30.00
2018-10-12T13:01:48.484Z,29.60
2018-10-12T13:04:16.848Z,29.90
2018-10-12T13:06:45.203Z,30.10
2018-10-12T13:09:13.555Z,30.70
2018-10-12T13:11:41.913Z,30.00
2018-10-12T13:14:10.355Z,29.60
2018-10-12T13:16:38.751Z,29.00
2018-10-12T13:19:07.459Z,28.70
2018-10-12T13:21:35.789Z,28.50
2018-10-12T13:24:04.146Z,28.50
2018-10-12T13:26:32.468Z,28.00
2018-10-12T13:29:00.812Z,27.80
2018-10-12T13:31:29.178Z,27.70
2018-10-12T13:33:57.536Z,27.80
2018-10-12T13:36:25.914Z,27.90
2018-10-12T13:38:54.247Z,27.80
2018-10-12T13:41:22.623Z,27.60
2018-10-12T13:43:51.052Z,27.60
2018-10-12T13:46:19.453Z,28.00
2018-10-12T13:48:47.797Z,27.40
2018-10-12T13:51:16.159Z,27.90
2018-10-12T13:53:44.493Z,27.80
2018-10-12T13:56:12.843Z,27.60
2018-10-12T13:58:41.205Z,27.40
2018-10-12T14:01:09.616Z,27.80
2018-10-12T14:03:37.948Z,27.60
2018-10-12T14:06:06.318Z,27.30
2018-10-12T14:08:34.773Z,27.10
2018-10-12T14:11:03.134Z,27.60
2018-10-12T14:13:38.232Z,27.60
2018-10-12T14:16:06.980Z,27.60
2018-10-12T14:18:35.747Z,27.20
2018-10-12T14:21:04.873Z,27.50
2018-10-12T14:26:07.954Z,27.60
2018-10-12T14:28:36.319Z,27.50
2018-10-12T14:31:04.671Z,27.10
2018-10-12T14:33:33.049Z,27.50
2018-10-12T14:36:01.369Z,27.60
2018-10-12T14:38:36.243Z,27.70
2018-10-12T14:41:04.613Z,27.60
2018-10-12T14:43:32.961Z,27.40
2018-10-12T14:46:01.388Z,27.70
2018-10-12T14:48:29.877Z,28.10
2018-10-12T14:50:58.304Z,28.50
2018-10-12T14:53:26.802Z,28.70
2018-10-12T14:55:55.153Z,28.80
2018-10-12T14:58:23.540Z,28.70
2018-10-12T15:00:51.881Z,28.80
2018-10-12T15:03:20.231Z,29.30
2018-10-12T15:05:55.186Z,29.80
2018-10-12T15:08:23.609Z,30.00
2018-10-12T15:10:51.977Z,29.80
2018-10-12T15:13:20.332Z,30.30
2018-10-12T15:15:48.738Z,30.40
2018-10-12T15:18:17.328Z,30.80
2018-10-12T15:20:45.762Z,31.00
2018-10-12T15:23:14.043Z,31.20
2018-10-12T15:25:42.392Z,31.30
2018-10-12T15:28:10.745Z,31.50
2018-10-12T15:30:39.090Z,32.40
2018-10-12T15:33:07.476Z,32.40
2018-10-12T15:35:35.855Z,32.00
2018-10-12T15:38:04.228Z,31.60
2018-10-12T15:40:32.648Z,31.80
2018-10-12T15:43:01.205Z,31.90
2018-10-12T15:45:29.419Z,31.60
2018-10-12T15:47:57.797Z,31.50
2018-10-12T15:50:26.176Z,31.90
2018-10-12T15:52:54.535Z,32.70
2018-10-12T15:55:22.944Z,32.50
2018-10-12T15:57:51.350Z,32.20
2018-10-12T16:00:19.770Z,32.20
2018-10-12T16:02:48.146Z,32.30
2018-10-12T16:05:16.544Z,32.70
2018-10-12T16:07:44.880Z,33.10
2018-10-12T16:10:13.514Z,34.80
2018-10-12T16:12:41.902Z,33.30
2018-10-12T16:15:10.272Z,34.60
2018-10-12T16:17:38.620Z,34.60
2018-10-12T16:20:07.006Z,34.80
2018-10-12T16:22:35.466Z,34.30
2018-10-12T16:25:14.994Z,35.00
2018-10-12T16:27:43.314Z,35.40
2018-10-12T16:30:11.677Z,36.00
2018-10-12T16:32:40.089Z,36.40
2018-10-12T16:35:08.470Z,37.90
2018-10-12T16:37:36.876Z,39.20
2018-10-12T16:40:05.293Z,39.10
2018-10-12T16:42:33.662Z,38.50
2018-10-12T16:45:02.062Z,38.70
2018-10-12T16:47:30.478Z,39.30
2018-10-12T16:49:58.837Z,39.50
2018-10-12T16:52:27.161Z,39.60
2018-10-12T16:54:55.496Z,40.00
2018-10-12T16:57:35.359Z,40.10
2018-10-12T17:00:03.907Z,40.40
2018-10-12T17:02:32.298Z,40.40
2018-10-12T17:05:04.620Z,40.60
2018-10-12T17:07:32.995Z,40.80
2018-10-12T17:10:01.455Z,41.10
2018-10-12T17:12:29.821Z,41.60
2018-10-12T17:14:58.206Z,41.90
2018-10-12T17:17:26.552Z,42.30
2018-10-12T17:19:55.105Z,42.10
2018-10-12T17:22:23.478Z,42.00
2018-10-12T17:24:52.058Z,42.90
2018-10-12T17:27:20.428Z,43.70
2018-10-12T17:29:49.022Z,44.30
2018-10-12T17:32:17.426Z,44.70
2018-10-12T17:34:45.809Z,45.60
2018-10-12T17:37:14.132Z,45.70
2018-10-12T17:39:42.480Z,45.90
2018-10-12T17:42:13.794Z,46.20
2018-10-12T17:44:42.152Z,46.50
2018-10-12T17:47:10.516Z,47.00
2018-10-12T17:49:38.956Z,47.20
2018-10-12T17:52:07.464Z,46.70
2018-10-12T17:54:35.831Z,46.80
2018-10-12T17:57:05.204Z,46.60
2018-10-12T17:59:33.773Z,46.30
2018-10-12T18:02:02.431Z,45.80
2018-10-12T18:04:30.781Z,46.20
2018-10-12T18:06:59.170Z,47.30
2018-10-12T18:09:27.600Z,47.10
2018-10-12T18:11:55.962Z,47.90
2018-10-12T18:14:24.856Z,48.30
2018-10-12T18:16:53.305Z,48.70
2018-10-12T18:19:21.675Z,49.60
2018-10-12T18:21:50.035Z,48.60
2018-10-12T18:24:18.416Z,48.60
2018-10-12T18:26:46.779Z,48.30
2018-10-12T18:29:15.466Z,48.30
2018-10-12T18:31:43.845Z,48.10
2018-10-12T18:34:13.381Z,48.40
2018-10-12T18:36:41.978Z,48.70
2018-10-12T18:39:10.846Z,49.30
2018-10-12T18:41:39.459Z,49.80
2018-10-12T18:44:12.844Z,50.30
2018-10-12T18:46:41.251Z,50.20
2018-10-12T18:49:09.601Z,50.10
2018-10-12T18:51:37.982Z,50.10
2018-10-12T18:54:06.406Z,50.00
2018-10-12T18:56:34.720Z,50.00
2018-10-12T18:59:03.145Z,50.00
2018-10-12T19:01:31.493Z,49.90
2018-10-12T19:03:59.879Z,49.90
2018-10-12T19:06:28.311Z,49.80
2018-10-12T19:08:56.620Z,50.50
2018-10-12T19:11:24.961Z,50.90
2018-10-12T19:13:53.321Z,51.00
2018-10-12T19:16:21.645Z,51.00
2018-10-12T19:18:50.010Z,51.40
2018-10-12T19:21:18.351Z,51.20
2018-10-12T19:23:46.795Z,51.70
2018-10-12T19:26:15.139Z,51.90
2018-10-12T19:28:43.476Z,51.80
2018-10-12T19:31:11.911Z,52.00
2018-10-12T19:33:40.205Z,52.20
2018-10-12T19:36:08.557Z,52.50
2018-10-12T19:38:36.957Z,52.80
2018-10-12T19:41:05.509Z,52.90
2018-10-12T19:43:33.841Z,53.40
2018-10-12T19:46:02.209Z,53.80
2018-10-12T19:48:30.544Z,53.70
2018-10-12T19:50:58.927Z,53.60
2018-10-12T19:53:27.261Z,53.80
2018-10-12T19:55:55.616Z,53.90
2018-10-12T19:58:24.000Z,54.00
2018-10-12T20:00:52.317Z,54.40
2018-10-12T20:03:20.708Z,55.20
2018-10-12T20:05:49.088Z,55.50
2018-10-12T20:08:17.515Z,55.80
2018-10-12T20:10:45.905Z,55.60
2018-10-12T20:13:14.259Z,55.80
2018-10-12T20:15:42.705Z,56.00
2018-10-12T20:18:11.040Z,56.00
2018-10-12T20:20:39.455Z,56.10
2018-10-12T20:23:07.790Z,56.20
2018-10-12T20:25:36.114Z,56.40
2018-10-12T20:28:04.493Z,56.70
2018-10-12T20:30:32.821Z,57.20
2018-10-12T20:33:01.177Z,57.40
2018-10-12T20:35:29.645Z,57.70
2018-10-12T20:37:57.932Z,57.80
2018-10-12T20:40:26.259Z,57.70
2018-10-12T20:42:54.643Z,58.40
2018-10-12T20:45:22.975Z,58.30
2018-10-12T20:47:51.389Z,58.20
2018-10-12T20:50:19.743Z,58.10
2018-10-12T20:52:48.107Z,58.40
2018-10-12T20:55:16.530Z,58.70
2018-10-12T20:57:48.353Z,58.60
2018-10-12T21:00:18.153Z,58.20
2018-10-12T21:02:46.704Z,58.10
2018-10-12T21:05:15.177Z,58.10
2018-10-12T21:07:44.293Z,58.10
2018-10-12T21:10:12.688Z,59.20
2018-10-12T21:12:41.074Z,60.10
2018-10-12T21:15:09.456Z,59.90
2018-10-12T21:17:37.821Z,60.80
2018-10-12T21:20:06.367Z,60.50
2018-10-12T21:22:35.259Z,60.10
2018-10-12T21:25:03.669Z,59.80
2018-10-12T21:27:32.037Z,59.60
2018-10-12T21:30:00.429Z,60.10
2018-10-12T21:32:28.791Z,60.30
2018-10-12T21:34:57.317Z,60.40
2018-10-12T21:37:25.690Z,60.00
2018-10-12T21:39:54.032Z,60.10
2018-10-12T21:42:22.381Z,60.50
2018-10-12T21:44:50.724Z,60.90
2018-10-12T21:47:19.096Z,61.50
2018-10-12T21:49:47.426Z,61.20
2018-10-12T21:52:15.805Z,61.20
2018-10-12T21:54:44.150Z,60.80
2018-10-12T21:57:12.522Z,61.10
2018-10-12T21:59:40.894Z,61.20
2018-10-12T22:02:09.324Z,61.40
2018-10-12T22:04:37.676Z,61.40
2018-10-12T22:07:06.017Z,61.30
2018-10-12T22:09:34.323Z,61.20
2018-10-12T22:12:02.686Z,61.50
2018-10-12T22:14:31.046Z,61.50
2018-10-12T22:16:59.409Z,62.10
2018-10-12T22:19:27.744Z,62.80
2018-10-12T22:21:56.080Z,63.20
2018-10-12T22:24:24.434Z,63.40
2018-10-12T22:26:52.807Z,63.50
2018-10-12T22:29:21.287Z,63.90
2018-10-12T22:31:49.680Z,64.20
2018-10-12T22:34:18.018Z,64.50
2018-10-12T22:36:46.345Z,65.00
2018-10-12T22:39:14.711Z,65.20
2018-10-12T22:41:43.097Z,65.00
2018-10-12T22:44:11.505Z,64.70
2018-10-12T22:46:39.835Z,64.60
2018-10-12T22:49:08.185Z,64.40
2018-10-12T22:51:36.503Z,64.20
2018-10-12T22:54:04.862Z,63.90
2018-10-12T22:56:33.358Z,63.60
2018-10-12T22:59:01.781Z,63.60
2018-10-12T23:01:30.176Z,63.30
2018-10-12T23:03:58.533Z,63.40
2018-10-12T23:06:26.890Z,63.70
2018-10-12T23:08:55.227Z,64.10
2018-10-12T23:11:23.564Z,64.30
2018-10-12T23:13:51.916Z,64.60
2018-10-12T23:16:20.358Z,64.80
2018-10-12T23:18:55.484Z,64.80
2018-10-12T23:21:23.818Z,65.40
2018-10-12T23:23:52.148Z,65.40
2018-10-12T23:26:20.521Z,65.10
2018-10-12T23:28:48.864Z,64.90
2018-10-12T23:31:17.212Z,64.70
2018-10-12T23:33:56.820Z,64.40
2018-10-12T23:36:25.143Z,64.00
2018-10-12T23:38:53.523Z,64.20
2018-10-12T23:41:21.887Z,64.50
2018-10-12T23:43:50.232Z,64.50
2018-10-12T23:46:18.591Z,64.80
2018-10-12T23:48:46.942Z,65.50
2018-10-12T23:51:15.254Z,66.00
2018-10-12T23:53:43.620Z,65.80
2018-10-12T23:56:12.873Z,65.60
2018-10-12T23:58:41.231Z,65.90
